Carolina Queen III — WDG4825 — position and weather

sailwx.info

Track history (hours):
 
Tides and Currents Weather Stations Pressure Air Temp Water Temp Dewpoint Dewpoint Depression Visibility Wind Speed Wind Dir Waves Ship Positions

Carolina Queen III

Owner: Carolina Queen II, Inc., Seaford, VA. More information available from US FCC via Universal Licensing System and Coast Guard Vessel Documentation Center.

Last reported at 2018-Jul-14 12:50 UTC. Time now 2018-Jul-17 11:35 UTC.
Position N 37°12' W 076°25'.

Type: Fishing. MMSI: 367540520.

Date/timePositionNaut miles runAvg speedWind from/ knotsBaromVisibWave heightAir tempDewpointWater temp
2018-Jul-14 12:50N 37°12' W 076°25'0 0.0
2018-Jul-14 12:30N 37°12' W 076°25'0 0.0
2018-Jul-14 12:00N 37°12' W 076°25'0 0.0
2018-Jul-14 11:30N 37°12' W 076°25'0 0.0
2018-Jul-14 11:00N 37°12' W 076°25'0 0.0
2018-Jul-14 10:30N 37°12' W 076°25'0 0.0
2018-Jul-14 09:09N 37°12' W 076°25'0 0.0
2018-Jul-14 08:53N 37°12' W 076°25'  
2018-Jul-12 02:48N 38°53' W 074°20'279 7.6
2018-Jul-10 14:06N 41°03' W 068°58'0 1.3
2018-Jul-10 14:00N 41°03' W 068°58'2 0.1
2018-Jul-09 07:47N 41°05' W 068°60'2 3.3
2018-Jul-09 07:07N 41°03' W 068°58'1 1.0
2018-Jul-09 06:01N 41°04' W 068°59'0 2.4
2018-Jul-09 05:59N 41°04' W 068°59'1 2.4
2018-Jul-09 05:30N 41°02' W 068°59'1 0.9
2018-Jul-09 04:08N 41°04' W 068°59'2 3.6
2018-Jul-09 03:42N 41°02' W 068°58'  
Track history (hours):
 
Tides and Currents Weather Stations Pressure Air Temp Water Temp Dewpoint Dewpoint Depression Visibility Wind Speed Wind Dir Waves Ship Positions

Carolina Queen III

Owner: Carolina Queen II, Inc., Seaford, VA. More information available from US FCC via Universal Licensing System and Coast Guard Vessel Documentation Center.

Last reported at 2018-Jul-14 12:50 UTC. Time now 2018-Jul-17 11:35 UTC.
Position N 37°12' W 076°25'.

Type: Fishing. MMSI: 367540520.

Date/timePositionNaut miles runAvg speedWind from/ knotsBaromVisibWave heightAir tempDewpointWater temp
2018-Jul-14 12:50N 37°12' W 076°25'0 0.0
2018-Jul-14 12:30N 37°12' W 076°25'0 0.0
2018-Jul-14 12:00N 37°12' W 076°25'0 0.0
2018-Jul-14 11:30N 37°12' W 076°25'0 0.0
2018-Jul-14 11:00N 37°12' W 076°25'0 0.0
2018-Jul-14 10:30N 37°12' W 076°25'0 0.0
2018-Jul-14 09:09N 37°12' W 076°25'0 0.0
2018-Jul-14 08:53N 37°12' W 076°25'  
2018-Jul-12 02:48N 38°53' W 074°20'279 7.6
2018-Jul-10 14:06N 41°03' W 068°58'0 1.3
2018-Jul-10 14:00N 41°03' W 068°58'2 0.1
2018-Jul-09 07:47N 41°05' W 068°60'2 3.3
2018-Jul-09 07:07N 41°03' W 068°58'1 1.0
2018-Jul-09 06:01N 41°04' W 068°59'0 2.4
2018-Jul-09 05:59N 41°04' W 068°59'1 2.4
2018-Jul-09 05:30N 41°02' W 068°59'1 0.9
2018-Jul-09 04:08N 41°04' W 068°59'2 3.6
2018-Jul-09 03:42N 41°02' W 068°58'  

Dump ship's entire track history